Pagrindinis puslapis
METAR-TAF:

METAR-TAF

Oro uostai :

Togiak, Aliaska, Jungtinės Amerikos Valstijos

platuma: 59-03N, ilguma: 160-24W, Aukštis: 6 m

Dabartinis oras

Ataskaita buvo paskelbta 7 minutes, ne 03:56 UTC
Vėjas 13 kt iš Vakarų su gūsio iki 19 kt
Temperatūra 12°C
Drėgmė 88%
Slėgis 1001 hPa
Matomumas: 16.1 km
Išsisklaidę debesys ne aukštis 7000 ft

METAR: PATG 160356Z AUTO 27013G19KT 10SM SCT070 12/10 A2957 RMK AO2 SLP105 T01220100

Laikas: 20:03 (04:03 UTC)


TAF: trūkstamas

Orai ataskaitas ir orų prognozės (METAR, TAF).

turimą stotys yra geltonos ir raudonos taškus žemėlapyje.

Perkelti pele per norėdami pamatyti stoties vardą.

Tada spustelėkite, norėdami matyti oro stebėjimo ir prognozės.

Norėdami pakeisti žemėlapį: spustelėkite ant žalios mygtukų su juodo kryžiaus žemyn,; žalią mygtuką su brūkšneliu, jei norite nutolinti; arba žalių rodyklių gretimoms žemėlapius.


METAR-TAF: